Time,TemperatureF,DewpointF,PressureIn,WindDirection,WindDirectionDegrees,WindSpeedMPH,WindSpeedGustMPH,Humidity,HourlyPrecipIn,Conditions,Clouds,dailyrainin,SoftwareType,DateUTC
2013-01-26 00:02:00,27.0,26.0,29.00,North,359,0.0,-999.0,96,18.62,,,-99.99,,2013-01-26 06:02:00,
2013-01-26 00:12:00,27.0,26.0,29.00,North,359,0.0,-999.0,96,18.62,,,-99.99,,2013-01-26 06:12:00,
2013-01-26 00:21:00,25.0,24.0,29.01,NNE,30,0.0,-999.0,95,18.62,,,-99.99,,2013-01-26 06:21:00,
2013-01-26 00:32:00,25.0,24.0,29.01,NNE,30,0.0,-999.0,95,18.62,,,-99.99,,2013-01-26 06:32:00,
2013-01-26 00:42:00,25.0,24.0,29.01,NNE,30,0.0,-999.0,95,18.62,,,-99.99,,2013-01-26 06:42:00,
2013-01-26 00:52:00,25.0,24.0,29.00,NE,52,0.0,-999.0,95,18.62,,,-99.99,,2013-01-26 06:52:00,
2013-01-26 01:01:00,25.0,24.0,29.00,NE,52,0.0,-999.0,95,18.62,,,-99.99,,2013-01-26 07:01:00,
2013-01-26 01:12:00,25.0,24.0,29.00,NE,52,0.0,-999.0,95,18.62,,,-99.99,,2013-01-26 07:12:00,
2013-01-26 01:21:00,24.0,23.0,29.00,ENE,75,0.0,-999.0,95,18.62,,,-99.99,,2013-01-26 07:21:00,
2013-01-26 01:33:00,24.0,23.0,29.00,ENE,75,0.0,-999.0,95,18.62,,,-99.99,,2013-01-26 07:33:00,
2013-01-26 01:42:00,24.0,23.0,29.00,ENE,75,0.0,-999.0,95,18.62,,,-99.99,,2013-01-26 07:42:00,
2013-01-26 01:52:00,24.0,23.0,29.01,ENE,59,0.0,-999.0,96,18.62,,,-99.99,,2013-01-26 07:52:00,
2013-01-26 02:02:00,24.0,23.0,29.01,ENE,59,0.0,-999.0,96,18.62,,,-99.99,,2013-01-26 08:02:00,
2013-01-26 02:11:00,24.0,23.0,29.01,ENE,59,0.0,-999.0,96,18.62,,,-99.99,,2013-01-26 08:11:00,
2013-01-26 02:21:00,23.0,22.0,29.00,ESE,103,5.0,-999.0,96,18.62,,,-99.99,,2013-01-26 08:21:00,
2013-01-26 02:32:00,23.0,22.0,29.00,ESE,103,5.0,-999.0,96,18.62,,,-99.99,,2013-01-26 08:32:00,
2013-01-26 02:42:00,23.0,22.0,29.00,ESE,103,5.0,-999.0,96,18.62,,,-99.99,,2013-01-26 08:42:00,
2013-01-26 02:54:00,22.0,21.0,29.01,East,86,0.0,-999.0,96,18.62,,,-99.99,,2013-01-26 08:54:00,
2013-01-26 03:02:00,22.0,21.0,29.01,East,86,0.0,-999.0,96,18.62,,,-99.99,,2013-01-26 09:02:00,
2013-01-26 03:11:00,22.0,21.0,29.01,East,86,0.0,-999.0,96,18.62,,,-99.99,,2013-01-26 09:11:00,
2013-01-26 03:22:00,22.0,21.0,29.00,East,90,3.0,-999.0,97,18.62,,,-99.99,,2013-01-26 09:22:00,
2013-01-26 03:32:00,22.0,21.0,29.00,East,90,3.0,-999.0,97,18.62,,,-99.99,,2013-01-26 09:32:00,
2013-01-26 03:42:00,22.0,21.0,29.00,East,90,3.0,-999.0,97,18.62,,,-99.99,,2013-01-26 09:42:00,
2013-01-26 03:52:00,21.0,20.0,29.00,ESE,115,4.0,-999.0,97,18.62,,,-99.99,,2013-01-26 09:52:00,
2013-01-26 04:01:00,21.0,20.0,29.00,ESE,115,4.0,-999.0,97,18.62,,,-99.99,,2013-01-26 10:01:00,
2013-01-26 04:12:00,21.0,20.0,29.00,ESE,115,4.0,-999.0,97,18.62,,,-99.99,,2013-01-26 10:12:00,
2013-01-26 04:21:00,21.0,20.0,28.99,ESE,107,0.0,-999.0,97,18.62,,,-99.99,,2013-01-26 10:21:00,
2013-01-26 04:32:00,21.0,20.0,28.99,ESE,107,0.0,-999.0,97,18.62,,,-99.99,,2013-01-26 10:32:00,
2013-01-26 04:43:00,21.0,20.0,28.99,ESE,107,0.0,-999.0,97,18.62,,,-99.99,,2013-01-26 10:43:00,
2013-01-26 04:52:00,20.0,19.0,28.98,ESE,105,5.0,-999.0,97,18.62,,,-99.99,,2013-01-26 10:52:00,
2013-01-26 05:01:00,20.0,19.0,28.98,ESE,105,5.0,-999.0,97,18.62,,,-99.99,,2013-01-26 11:01:00,
2013-01-26 05:12:00,20.0,19.0,28.98,ESE,105,5.0,-999.0,97,18.62,,,-99.99,,2013-01-26 11:12:00,
2013-01-26 05:22:00,20.0,19.0,28.99,SE,146,0.0,-999.0,97,18.62,,,-99.99,,2013-01-26 11:22:00,
2013-01-26 05:32:00,20.0,19.0,28.99,SE,146,0.0,-999.0,97,18.62,,,-99.99,,2013-01-26 11:32:00,
2013-01-26 05:42:00,20.0,19.0,28.99,SE,146,0.0,-999.0,97,18.62,,,-99.99,,2013-01-26 11:42:00,
2013-01-26 05:52:00,20.0,19.0,28.99,ESE,107,0.0,-999.0,96,18.62,,,-99.99,,2013-01-26 11:52:00,
2013-01-26 06:02:00,20.0,19.0,28.99,ESE,107,0.0,-999.0,96,18.62,,,-99.99,,2013-01-26 12:02:00,
2013-01-26 06:12:00,20.0,19.0,28.99,ESE,107,0.0,-999.0,96,18.62,,,-99.99,,2013-01-26 12:12:00,
2013-01-26 06:22:00,20.0,19.0,28.99,ESE,107,5.0,-999.0,96,18.62,,,-99.99,,2013-01-26 12:22:00,
2013-01-26 06:33:00,20.0,19.0,28.99,ESE,107,5.0,-999.0,96,18.62,,,-99.99,,2013-01-26 12:33:00,
2013-01-26 06:42:00,20.0,19.0,28.99,ESE,107,5.0,-999.0,96,18.62,,,-99.99,,2013-01-26 12:42:00,
2013-01-26 06:53:00,20.0,19.0,28.98,SE,134,7.0,-999.0,96,18.62,,,-99.99,,2013-01-26 12:53:00,
2013-01-26 07:03:00,20.0,19.0,28.98,SE,134,7.0,-999.0,96,18.62,,,-99.99,,2013-01-26 13:03:00,
2013-01-26 07:12:00,20.0,19.0,28.98,SE,134,7.0,-999.0,96,18.62,,,-99.99,,2013-01-26 13:12:00,
2013-01-26 07:22:00,19.0,18.0,28.99,SE,142,6.0,-999.0,96,18.62,,,-99.99,,2013-01-26 13:22:00,
2013-01-26 07:33:00,19.0,18.0,28.99,SE,142,6.0,-999.0,96,18.62,,,-99.99,,2013-01-26 13:33:00,
2013-01-26 07:42:00,19.0,18.0,28.99,SE,142,6.0,-999.0,96,18.62,,,-99.99,,2013-01-26 13:42:00,
2013-01-26 07:53:00,19.0,18.0,28.99,SE,127,5.0,-999.0,96,18.62,,,-99.99,,2013-01-26 13:53:00,
2013-01-26 08:02:00,19.0,18.0,28.99,SE,127,5.0,-999.0,96,18.62,,,-99.99,,2013-01-26 14:02:00,
2013-01-26 08:12:00,19.0,18.0,28.99,SE,127,5.0,-999.0,96,18.62,,,-99.99,,2013-01-26 14:12:00,
2013-01-26 08:21:00,19.0,18.0,28.99,SE,141,6.0,-999.0,95,18.62,,,-99.99,,2013-01-26 14:21:00,
2013-01-26 08:32:00,19.0,18.0,28.99,SE,141,6.0,-999.0,95,18.62,,,-99.99,,2013-01-26 14:32:00,
2013-01-26 08:43:00,19.0,18.0,28.99,SE,141,6.0,-999.0,95,18.62,,,-99.99,,2013-01-26 14:43:00,
2013-01-26 08:53:00,19.0,18.0,29.00,SE,146,6.0,-999.0,95,18.62,,,-99.99,,2013-01-26 14:53:00,
2013-01-26 09:02:00,19.0,18.0,29.00,SE,146,6.0,-999.0,95,18.62,,,-99.99,,2013-01-26 15:02:00,
2013-01-26 09:12:00,19.0,18.0,29.00,SE,146,6.0,-999.0,95,18.62,,,-99.99,,2013-01-26 15:12:00,
2013-01-26 09:22:00,20.0,19.0,28.99,SSE,163,9.0,-999.0,94,18.62,,,-99.99,,2013-01-26 15:22:00,
2013-01-26 09:33:00,20.0,19.0,28.99,SSE,163,9.0,-999.0,94,18.62,,,-99.99,,2013-01-26 15:33:00,
2013-01-26 09:43:00,20.0,19.0,28.99,SSE,163,9.0,-999.0,94,18.62,,,-99.99,,2013-01-26 15:43:00,
2013-01-26 09:53:00,22.0,21.0,28.99,ESE,117,9.0,-999.0,94,18.62,,,-99.99,,2013-01-26 15:53:00,
2013-01-26 10:02:00,22.0,21.0,28.99,ESE,117,9.0,-999.0,94,18.62,,,-99.99,,2013-01-26 16:02:00,
2013-01-26 10:12:00,24.0,23.0,28.98,SE,146,11.0,-999.0,94,18.62,,,-99.99,,2013-01-26 16:12:00,
2013-01-26 10:22:00,24.0,23.0,28.98,SE,146,11.0,-999.0,94,18.62,,,-99.99,,2013-01-26 16:22:00,
2013-01-26 10:33:00,24.0,23.0,28.98,SE,146,11.0,-999.0,94,18.62,,,-99.99,,2013-01-26 16:33:00,
2013-01-26 10:43:00,24.0,23.0,28.98,SE,146,11.0,-999.0,94,18.62,,,-99.99,,2013-01-26 16:43:00,
2013-01-26 10:53:00,25.0,23.0,28.98,SSE,160,13.0,-999.0,93,18.62,,,-99.99,,2013-01-26 16:53:00,
2013-01-26 11:03:00,25.0,23.0,28.98,SSE,160,13.0,-999.0,93,18.62,,,-99.99,,2013-01-26 17:03:00,
2013-01-26 11:12:00,25.0,23.0,28.98,SSE,160,13.0,-999.0,93,18.62,,,-99.99,,2013-01-26 17:12:00,
2013-01-26 11:22:00,28.0,26.0,28.97,SSE,162,13.0,-999.0,92,18.62,,,-99.99,,2013-01-26 17:22:00,
2013-01-26 11:33:00,28.0,26.0,28.97,SSE,162,13.0,-999.0,92,18.62,,,-99.99,,2013-01-26 17:33:00,
2013-01-26 11:42:00,28.0,26.0,28.97,SSE,162,13.0,-999.0,92,18.62,,,-99.99,,2013-01-26 17:42:00,
2013-01-26 11:53:00,30.0,28.0,28.97,SSE,166,12.0,-999.0,91,18.62,,,-99.99,,2013-01-26 17:53:00,
2013-01-26 12:02:00,30.0,28.0,28.97,SSE,166,12.0,-999.0,91,18.62,,,-99.99,,2013-01-26 18:02:00,
2013-01-26 12:12:00,30.0,28.0,28.97,SSE,166,12.0,-999.0,91,18.62,,,-99.99,,2013-01-26 18:12:00,
2013-01-26 12:22:00,33.0,30.0,28.95,SSE,167,18.0,-999.0,89,18.62,,,-99.99,,2013-01-26 18:22:00,
2013-01-26 12:33:00,33.0,30.0,28.95,SSE,167,18.0,-999.0,89,18.62,,,-99.99,,2013-01-26 18:33:00,
2013-01-26 12:42:00,33.0,30.0,28.95,SSE,167,18.0,-999.0,89,18.62,,,-99.99,,2013-01-26 18:42:00,
2013-01-26 12:52:00,34.0,31.0,28.93,SSE,153,9.0,-999.0,89,18.62,,,-99.99,,2013-01-26 18:52:00,
2013-01-26 13:03:00,34.0,31.0,28.93,SSE,153,9.0,-999.0,89,18.62,,,-99.99,,2013-01-26 19:03:00,
2013-01-26 13:12:00,34.0,31.0,28.93,SSE,153,9.0,-999.0,89,18.62,,,-99.99,,2013-01-26 19:12:00,
2013-01-26 13:22:00,38.0,34.0,28.89,SE,146,13.0,-999.0,84,18.62,,,-99.99,,2013-01-26 19:22:00,
2013-01-26 13:33:00,38.0,34.0,28.89,SE,146,13.0,-999.0,84,18.62,,,-99.99,,2013-01-26 19:33:00,
2013-01-26 13:43:00,38.0,34.0,28.89,SE,146,13.0,-999.0,84,18.62,,,-99.99,,2013-01-26 19:43:00,
2013-01-26 13:53:00,39.0,34.0,28.88,SSE,166,10.0,-999.0,82,18.62,,,-99.99,,2013-01-26 19:53:00,
2013-01-26 14:02:00,39.0,34.0,28.88,SSE,166,10.0,-999.0,82,18.62,,,-99.99,,2013-01-26 20:02:00,
2013-01-26 14:11:00,39.0,34.0,28.88,SSE,166,10.0,-999.0,82,18.62,,,-99.99,,2013-01-26 20:11:00,
2013-01-26 14:21:00,43.0,36.0,28.86,South,191,10.0,-999.0,76,18.62,,,-99.99,,2013-01-26 20:21:00,
2013-01-26 14:32:00,43.0,36.0,28.86,South,191,10.0,-999.0,76,18.62,,,-99.99,,2013-01-26 20:32:00,
2013-01-26 14:42:00,43.0,36.0,28.86,South,191,10.0,-999.0,76,18.62,,,-99.99,,2013-01-26 20:42:00,
2013-01-26 14:52:00,44.0,36.0,28.85,South,169,15.0,-999.0,74,18.62,,,-99.99,,2013-01-26 20:52:00,
2013-01-26 15:02:00,44.0,36.0,28.85,South,169,15.0,-999.0,74,18.62,,,-99.99,,2013-01-26 21:02:00,
2013-01-26 15:12:00,44.0,36.0,28.85,South,169,15.0,-999.0,74,18.62,,,-99.99,,2013-01-26 21:12:00,
2013-01-26 15:22:00,45.0,37.0,28.84,SSE,149,15.0,-999.0,73,18.62,,,-99.99,,2013-01-26 21:22:00,
2013-01-26 15:32:00,45.0,37.0,28.84,SSE,149,15.0,-999.0,73,18.62,,,-99.99,,2013-01-26 21:32:00,
2013-01-26 15:43:00,45.0,37.0,28.84,SSE,149,15.0,-999.0,73,18.62,,,-99.99,,2013-01-26 21:43:00,
2013-01-26 15:52:00,46.0,37.0,28.83,SSE,165,16.0,-999.0,71,18.62,,,-99.99,,2013-01-26 21:52:00,
2013-01-26 16:01:00,46.0,37.0,28.83,SSE,165,16.0,-999.0,71,18.62,,,-99.99,,2013-01-26 22:01:00,
2013-01-26 16:11:00,46.0,37.0,28.83,SSE,165,16.0,-999.0,71,18.62,,,-99.99,,2013-01-26 22:11:00,
2013-01-26 16:21:00,47.0,38.0,28.82,SSE,162,10.0,-999.0,71,18.62,,,-99.99,,2013-01-26 22:21:00,
2013-01-26 16:32:00,47.0,38.0,28.82,SSE,162,10.0,-999.0,71,18.62,,,-99.99,,2013-01-26 22:32:00,
2013-01-26 16:42:00,47.0,38.0,28.82,SSE,162,10.0,-999.0,71,18.62,,,-99.99,,2013-01-26 22:42:00,
2013-01-26 16:52:00,48.0,39.0,28.81,SSE,155,10.0,-999.0,70,18.62,,,-99.99,,2013-01-26 22:52:00,
2013-01-26 17:01:00,48.0,39.0,28.81,SSE,155,10.0,-999.0,70,18.62,,,-99.99,,2013-01-26 23:01:00,
2013-01-26 17:12:00,48.0,39.0,28.81,SSE,155,10.0,-999.0,70,18.62,,,-99.99,,2013-01-26 23:12:00,
2013-01-26 17:22:00,46.0,37.0,28.79,SE,132,9.0,-999.0,72,18.62,,,-99.99,,2013-01-26 23:22:00,
2013-01-26 17:33:00,46.0,37.0,28.79,SE,132,9.0,-999.0,72,18.62,,,-99.99,,2013-01-26 23:33:00,
2013-01-26 17:42:00,46.0,37.0,28.79,SE,132,9.0,-999.0,72,18.62,,,-99.99,,2013-01-26 23:42:00,
2013-01-26 17:52:00,45.0,37.0,28.79,SE,146,11.0,-999.0,74,18.62,,,-99.99,,2013-01-26 23:52:00,
2013-01-26 18:02:00,45.0,37.0,28.79,SE,146,11.0,-999.0,74,18.62,,,-99.99,,2013-01-27 00:02:00,
2013-01-26 18:11:00,45.0,37.0,28.79,SE,146,11.0,-999.0,74,18.62,,,-99.99,,2013-01-27 00:11:00,
2013-01-26 18:21:00,42.0,36.0,28.79,SSE,159,9.0,-999.0,78,18.62,,,-99.99,,2013-01-27 00:21:00,
2013-01-26 18:32:00,42.0,36.0,28.79,SSE,159,9.0,-999.0,78,18.62,,,-99.99,,2013-01-27 00:32:00,
2013-01-26 18:42:00,42.0,36.0,28.79,SSE,159,9.0,-999.0,78,18.62,,,-99.99,,2013-01-27 00:42:00,
2013-01-26 18:52:00,42.0,36.0,28.79,South,179,9.0,-999.0,80,18.62,,,-99.99,,2013-01-27 00:52:00,
2013-01-26 19:01:00,42.0,36.0,28.79,South,179,9.0,-999.0,80,18.62,,,-99.99,,2013-01-27 01:01:00,
2013-01-26 19:11:00,42.0,36.0,28.79,South,179,9.0,-999.0,80,18.62,,,-99.99,,2013-01-27 01:11:00,
2013-01-26 19:22:00,41.0,35.0,28.79,South,170,15.0,-999.0,80,18.62,,,-99.99,,2013-01-27 01:22:00,
2013-01-26 19:32:00,41.0,35.0,28.79,South,170,15.0,-999.0,80,18.62,,,-99.99,,2013-01-27 01:32:00,
2013-01-26 19:42:00,41.0,35.0,28.79,South,170,15.0,-999.0,80,18.62,,,-99.99,,2013-01-27 01:42:00,
2013-01-26 19:52:00,41.0,36.0,28.79,South,174,15.0,-999.0,81,18.62,,,-99.99,,2013-01-27 01:52:00,
2013-01-26 20:01:00,41.0,36.0,28.79,South,174,15.0,-999.0,81,18.62,,,-99.99,,2013-01-27 02:01:00,
2013-01-26 20:11:00,41.0,36.0,28.79,South,174,15.0,-999.0,81,18.62,,,-99.99,,2013-01-27 02:11:00,
2013-01-26 20:21:00,40.0,35.0,28.79,SSE,148,14.0,-999.0,82,18.62,,,-99.99,,2013-01-27 02:21:00,
2013-01-26 20:32:00,40.0,35.0,28.79,SSE,148,14.0,-999.0,82,18.62,,,-99.99,,2013-01-27 02:32:00,
2013-01-26 20:42:00,40.0,35.0,28.79,SSE,148,14.0,-999.0,82,18.62,,,-99.99,,2013-01-27 02:42:00,
2013-01-26 20:52:00,40.0,35.0,28.79,SSW,204,10.0,-999.0,82,18.62,,,-99.99,,2013-01-27 02:52:00,
2013-01-26 21:02:00,40.0,35.0,28.79,SSW,204,10.0,-999.0,82,18.62,,,-99.99,,2013-01-27 03:02:00,
2013-01-26 21:11:00,40.0,35.0,28.79,SSW,204,10.0,-999.0,82,18.62,,,-99.99,,2013-01-27 03:11:00,
2013-01-26 21:21:00,39.0,34.0,28.78,SSE,160,14.0,-999.0,83,18.62,,,-99.99,,2013-01-27 03:21:00,
2013-01-26 21:32:00,39.0,34.0,28.78,SSE,160,14.0,-999.0,83,18.62,,,-99.99,,2013-01-27 03:32:00,
2013-01-26 21:42:00,39.0,34.0,28.78,SSE,160,14.0,-999.0,83,18.62,,,-99.99,,2013-01-27 03:42:00,
2013-01-26 21:52:00,39.0,35.0,28.78,SSE,156,12.0,-999.0,84,18.62,,,-99.99,,2013-01-27 03:52:00,
2013-01-26 22:01:00,39.0,35.0,28.78,SSE,156,12.0,-999.0,84,18.62,,,-99.99,,2013-01-27 04:01:00,
2013-01-26 22:11:00,39.0,35.0,28.78,SSE,156,12.0,-999.0,84,18.62,,,-99.99,,2013-01-27 04:11:00,
2013-01-26 22:21:00,38.0,34.0,28.77,SSE,167,13.0,-999.0,84,18.62,,,-99.99,,2013-01-27 04:21:00,
2013-01-26 22:32:00,38.0,34.0,28.77,SSE,167,13.0,-999.0,84,18.62,,,-99.99,,2013-01-27 04:32:00,
2013-01-26 22:42:00,38.0,34.0,28.77,SSE,167,13.0,-999.0,84,18.62,,,-99.99,,2013-01-27 04:42:00,
2013-01-26 22:52:00,38.0,34.0,28.78,South,177,15.0,-999.0,84,18.62,,,-99.99,,2013-01-27 04:52:00,
2013-01-26 23:03:00,38.0,34.0,28.78,South,177,15.0,-999.0,84,18.62,,,-99.99,,2013-01-27 05:03:00,
2013-01-26 23:12:00,38.0,34.0,28.78,South,177,15.0,-999.0,84,18.62,,,-99.99,,2013-01-27 05:12:00,
2013-01-26 23:22:00,38.0,34.0,28.77,SSE,148,12.0,-999.0,85,18.62,,,-99.99,,2013-01-27 05:22:00,
2013-01-26 23:32:00,38.0,34.0,28.77,SSE,148,12.0,-999.0,85,18.62,,,-99.99,,2013-01-27 05:32:00,
2013-01-26 23:42:00,38.0,34.0,28.77,SSE,148,12.0,-999.0,85,18.62,,,-99.99,,2013-01-27 05:42:00,
2013-01-26 23:52:00,38.0,34.0,28.77,SSE,165,10.0,-999.0,84,18.62,,,-99.99,,2013-01-27 05:52:00,